sensor_id;sensor_type;location;lat;lon;timestamp;temperature;humidity
11597;DHT22;5854;48.072;16.286;2022-09-02T00:01:39;17.50;49.10
11597;DHT22;5854;48.072;16.286;2022-09-02T00:04:08;17.40;48.60
11597;DHT22;5854;48.072;16.286;2022-09-02T00:06:40;17.40;50.70
11597;DHT22;5854;48.072;16.286;2022-09-02T00:09:09;17.40;49.70
11597;DHT22;5854;48.072;16.286;2022-09-02T00:11:40;17.20;47.50
11597;DHT22;5854;48.072;16.286;2022-09-02T00:14:10;17.20;48.30
11597;DHT22;5854;48.072;16.286;2022-09-02T00:16:40;17.20;48.70
11597;DHT22;5854;48.072;16.286;2022-09-02T00:19:16;17.20;49.00
11597;DHT22;5854;48.072;16.286;2022-09-02T00:21:45;17.20;49.20
11597;DHT22;5854;48.072;16.286;2022-09-02T00:24:13;17.20;48.50
11597;DHT22;5854;48.072;16.286;2022-09-02T00:26:40;17.10;49.50
11597;DHT22;5854;48.072;16.286;2022-09-02T00:29:08;17.10;49.80
11597;DHT22;5854;48.072;16.286;2022-09-02T00:31:36;17.20;50.20
11597;DHT22;5854;48.072;16.286;2022-09-02T00:34:04;17.20;48.70
11597;DHT22;5854;48.072;16.286;2022-09-02T00:36:31;17.20;50.80
11597;DHT22;5854;48.072;16.286;2022-09-02T00:39:00;17.20;49.80
11597;DHT22;5854;48.072;16.286;2022-09-02T00:41:28;17.10;50.40
11597;DHT22;5854;48.072;16.286;2022-09-02T00:43:59;17.10;49.80
11597;DHT22;5854;48.072;16.286;2022-09-02T00:46:29;17.10;50.70
11597;DHT22;5854;48.072;16.286;2022-09-02T00:49:03;17.00;49.90
11597;DHT22;5854;48.072;16.286;2022-09-02T00:51:37;17.00;51.00
11597;DHT22;5854;48.072;16.286;2022-09-02T00:54:09;17.00;49.50
11597;DHT22;5854;48.072;16.286;2022-09-02T00:56:39;17.10;51.50
11597;DHT22;5854;48.072;16.286;2022-09-02T00:59:09;17.00;51.20
11597;DHT22;5854;48.072;16.286;2022-09-02T01:01:39;17.00;50.50
11597;DHT22;5854;48.072;16.286;2022-09-02T01:04:07;17.00;51.00
11597;DHT22;5854;48.072;16.286;2022-09-02T01:06:34;17.00;50.50
11597;DHT22;5854;48.072;16.286;2022-09-02T01:09:04;16.90;49.90
11597;DHT22;5854;48.072;16.286;2022-09-02T01:11:40;16.90;51.40
11597;DHT22;5854;48.072;16.286;2022-09-02T01:14:09;16.90;51.00
11597;DHT22;5854;48.072;16.286;2022-09-02T01:16:41;16.80;49.80
11597;DHT22;5854;48.072;16.286;2022-09-02T01:19:19;16.80;51.50
11597;DHT22;5854;48.072;16.286;2022-09-02T01:21:49;16.60;51.70
11597;DHT22;5854;48.072;16.286;2022-09-02T01:24:18;16.70;51.80
11597;DHT22;5854;48.072;16.286;2022-09-02T01:26:46;16.80;51.40
11597;DHT22;5854;48.072;16.286;2022-09-02T01:29:13;16.70;50.80
11597;DHT22;5854;48.072;16.286;2022-09-02T01:31:42;16.70;50.90
11597;DHT22;5854;48.072;16.286;2022-09-02T01:34:09;16.80;51.30
11597;DHT22;5854;48.072;16.286;2022-09-02T01:36:37;16.70;50.80
11597;DHT22;5854;48.072;16.286;2022-09-02T01:39:08;16.70;50.90
11597;DHT22;5854;48.072;16.286;2022-09-02T01:41:37;16.80;50.80
11597;DHT22;5854;48.072;16.286;2022-09-02T01:44:05;16.70;50.20
11597;DHT22;5854;48.072;16.286;2022-09-02T01:46:33;16.70;51.20
11597;DHT22;5854;48.072;16.286;2022-09-02T01:49:01;16.70;51.80
11597;DHT22;5854;48.072;16.286;2022-09-02T01:51:28;16.60;51.30
11597;DHT22;5854;48.072;16.286;2022-09-02T01:53:55;16.60;50.90
11597;DHT22;5854;48.072;16.286;2022-09-02T01:56:24;16.40;50.60
11597;DHT22;5854;48.072;16.286;2022-09-02T01:58:51;16.40;52.00
11597;DHT22;5854;48.072;16.286;2022-09-02T02:01:18;16.50;51.50
11597;DHT22;5854;48.072;16.286;2022-09-02T02:03:46;16.60;51.30
11597;DHT22;5854;48.072;16.286;2022-09-02T02:06:15;16.60;51.50
11597;DHT22;5854;48.072;16.286;2022-09-02T02:08:43;16.70;51.80
11597;DHT22;5854;48.072;16.286;2022-09-02T02:11:11;16.60;50.90
11597;DHT22;5854;48.072;16.286;2022-09-02T02:13:46;16.50;52.10
11597;DHT22;5854;48.072;16.286;2022-09-02T02:16:13;16.40;51.80
11597;DHT22;5854;48.072;16.286;2022-09-02T02:18:40;16.50;52.20
11597;DHT22;5854;48.072;16.286;2022-09-02T02:21:07;16.50;51.80
11597;DHT22;5854;48.072;16.286;2022-09-02T02:23:35;16.50;52.20
11597;DHT22;5854;48.072;16.286;2022-09-02T02:26:03;16.50;51.10
11597;DHT22;5854;48.072;16.286;2022-09-02T02:28:30;16.50;51.60
11597;DHT22;5854;48.072;16.286;2022-09-02T02:30:58;16.40;51.60
11597;DHT22;5854;48.072;16.286;2022-09-02T02:33:26;16.40;52.00
11597;DHT22;5854;48.072;16.286;2022-09-02T02:35:53;16.40;51.30
11597;DHT22;5854;48.072;16.286;2022-09-02T02:38:21;16.20;51.50
11597;DHT22;5854;48.072;16.286;2022-09-02T02:40:48;16.20;52.10
11597;DHT22;5854;48.072;16.286;2022-09-02T02:43:15;16.20;52.00
11597;DHT22;5854;48.072;16.286;2022-09-02T02:45:42;16.20;52.10
11597;DHT22;5854;48.072;16.286;2022-09-02T02:48:11;16.20;52.10
11597;DHT22;5854;48.072;16.286;2022-09-02T02:50:39;16.30;51.60
11597;DHT22;5854;48.072;16.286;2022-09-02T02:53:07;16.20;51.50
11597;DHT22;5854;48.072;16.286;2022-09-02T02:55:37;16.10;52.40
11597;DHT22;5854;48.072;16.286;2022-09-02T02:58:04;16.10;51.50
11597;DHT22;5854;48.072;16.286;2022-09-02T03:00:32;16.20;52.70
11597;DHT22;5854;48.072;16.286;2022-09-02T03:03:03;16.20;52.40
11597;DHT22;5854;48.072;16.286;2022-09-02T03:05:34;16.10;52.20
11597;DHT22;5854;48.072;16.286;2022-09-02T03:08:02;16.10;52.70
11597;DHT22;5854;48.072;16.286;2022-09-02T03:10:30;16.10;52.20
11597;DHT22;5854;48.072;16.286;2022-09-02T03:12:58;16.10;52.30
11597;DHT22;5854;48.072;16.286;2022-09-02T03:15:25;16.10;51.90
11597;DHT22;5854;48.072;16.286;2022-09-02T03:17:54;16.00;51.80
11597;DHT22;5854;48.072;16.286;2022-09-02T03:20:22;16.00;51.60
11597;DHT22;5854;48.072;16.286;2022-09-02T03:22:54;16.00;52.30
11597;DHT22;5854;48.072;16.286;2022-09-02T03:25:22;16.00;52.40
11597;DHT22;5854;48.072;16.286;2022-09-02T03:27:49;16.10;53.00
11597;DHT22;5854;48.072;16.286;2022-09-02T03:30:20;16.00;52.90
11597;DHT22;5854;48.072;16.286;2022-09-02T03:32:49;16.00;52.10
11597;DHT22;5854;48.072;16.286;2022-09-02T03:35:18;16.00;52.10
11597;DHT22;5854;48.072;16.286;2022-09-02T03:37:48;16.10;52.80
11597;DHT22;5854;48.072;16.286;2022-09-02T03:40:20;16.00;52.30
11597;DHT22;5854;48.072;16.286;2022-09-02T03:42:48;16.00;52.20
11597;DHT22;5854;48.072;16.286;2022-09-02T03:45:16;16.00;52.20
11597;DHT22;5854;48.072;16.286;2022-09-02T03:47:45;16.00;52.30
11597;DHT22;5854;48.072;16.286;2022-09-02T03:50:16;15.90;52.00
11597;DHT22;5854;48.072;16.286;2022-09-02T03:52:43;15.90;52.70
11597;DHT22;5854;48.072;16.286;2022-09-02T03:55:12;15.90;52.20
11597;DHT22;5854;48.072;16.286;2022-09-02T03:57:39;16.00;52.10
11597;DHT22;5854;48.072;16.286;2022-09-02T04:00:08;15.90;52.30
11597;DHT22;5854;48.072;16.286;2022-09-02T04:02:36;15.70;52.40
11597;DHT22;5854;48.072;16.286;2022-09-02T04:05:04;15.80;53.00
11597;DHT22;5854;48.072;16.286;2022-09-02T04:07:31;15.80;52.60
11597;DHT22;5854;48.072;16.286;2022-09-02T04:09:59;15.70;52.30
11597;DHT22;5854;48.072;16.286;2022-09-02T04:12:28;15.70;53.60
11597;DHT22;5854;48.072;16.286;2022-09-02T04:14:55;15.70;52.90
11597;DHT22;5854;48.072;16.286;2022-09-02T04:17:22;15.70;52.90
11597;DHT22;5854;48.072;16.286;2022-09-02T04:19:49;15.70;52.80
11597;DHT22;5854;48.072;16.286;2022-09-02T04:22:16;15.70;52.80
11597;DHT22;5854;48.072;16.286;2022-09-02T04:24:43;15.70;53.10
11597;DHT22;5854;48.072;16.286;2022-09-02T04:27:10;15.70;52.40
11597;DHT22;5854;48.072;16.286;2022-09-02T04:29:38;15.60;53.10
11597;DHT22;5854;48.072;16.286;2022-09-02T04:32:05;15.60;52.60
11597;DHT22;5854;48.072;16.286;2022-09-02T04:34:32;15.60;52.60
11597;DHT22;5854;48.072;16.286;2022-09-02T04:37:00;15.60;53.10
11597;DHT22;5854;48.072;16.286;2022-09-02T04:39:27;15.40;52.90
11597;DHT22;5854;48.072;16.286;2022-09-02T04:41:54;15.50;53.20
11597;DHT22;5854;48.072;16.286;2022-09-02T04:44:21;15.50;53.00
11597;DHT22;5854;48.072;16.286;2022-09-02T04:46:49;15.50;53.50
11597;DHT22;5854;48.072;16.286;2022-09-02T04:49:17;15.60;53.30
11597;DHT22;5854;48.072;16.286;2022-09-02T04:51:45;15.60;52.90
11597;DHT22;5854;48.072;16.286;2022-09-02T04:54:12;15.60;53.00
11597;DHT22;5854;48.072;16.286;2022-09-02T04:56:39;15.60;52.60
11597;DHT22;5854;48.072;16.286;2022-09-02T04:59:07;15.50;53.00
11597;DHT22;5854;48.072;16.286;2022-09-02T05:01:35;15.60;52.60
11597;DHT22;5854;48.072;16.286;2022-09-02T05:04:05;15.60;52.70
11597;DHT22;5854;48.072;16.286;2022-09-02T05:06:35;15.60;52.20
11597;DHT22;5854;48.072;16.286;2022-09-02T05:09:05;15.60;52.60
11597;DHT22;5854;48.072;16.286;2022-09-02T05:11:33;15.50;53.60
11597;DHT22;5854;48.072;16.286;2022-09-02T05:14:04;15.50;53.10
11597;DHT22;5854;48.072;16.286;2022-09-02T05:16:37;15.30;53.60
11597;DHT22;5854;48.072;16.286;2022-09-02T05:19:09;15.40;53.60
11597;DHT22;5854;48.072;16.286;2022-09-02T05:21:39;15.50;53.50
11597;DHT22;5854;48.072;16.286;2022-09-02T05:24:07;15.60;52.70
11597;DHT22;5854;48.072;16.286;2022-09-02T05:26:34;15.60;53.20
11597;DHT22;5854;48.072;16.286;2022-09-02T05:29:01;15.50;53.20
11597;DHT22;5854;48.072;16.286;2022-09-02T05:31:31;15.60;52.80
11597;DHT22;5854;48.072;16.286;2022-09-02T05:33:58;15.60;52.70
11597;DHT22;5854;48.072;16.286;2022-09-02T05:36:27;15.60;52.90
11597;DHT22;5854;48.072;16.286;2022-09-02T05:38:57;15.60;52.60
11597;DHT22;5854;48.072;16.286;2022-09-02T05:41:24;15.70;52.70
11597;DHT22;5854;48.072;16.286;2022-09-02T05:43:59;15.70;52.80
11597;DHT22;5854;48.072;16.286;2022-09-02T05:46:27;15.80;52.30
11597;DHT22;5854;48.072;16.286;2022-09-02T05:48:55;15.80;52.10
11597;DHT22;5854;48.072;16.286;2022-09-02T05:51:37;15.80;52.30
11597;DHT22;5854;48.072;16.286;2022-09-02T05:54:07;16.10;51.80
11597;DHT22;5854;48.072;16.286;2022-09-02T05:56:37;16.10;50.70
11597;DHT22;5854;48.072;16.286;2022-09-02T05:59:05;15.90;51.50
11597;DHT22;5854;48.072;16.286;2022-09-02T06:01:33;16.10;51.10
11597;DHT22;5854;48.072;16.286;2022-09-02T06:04:00;16.20;50.80
11597;DHT22;5854;48.072;16.286;2022-09-02T06:06:28;16.60;49.60
11597;DHT22;5854;48.072;16.286;2022-09-02T06:08:57;17.10;48.20
11597;DHT22;5854;48.072;16.286;2022-09-02T06:11:25;17.30;46.70
11597;DHT22;5854;48.072;16.286;2022-09-02T06:13:53;17.40;46.90
11597;DHT22;5854;48.072;16.286;2022-09-02T06:16:21;17.80;46.00
11597;DHT22;5854;48.072;16.286;2022-09-02T06:18:49;18.20;45.00
11597;DHT22;5854;48.072;16.286;2022-09-02T06:21:17;18.50;44.30
11597;DHT22;5854;48.072;16.286;2022-09-02T06:23:46;18.80;43.70
11597;DHT22;5854;48.072;16.286;2022-09-02T06:26:15;19.10;43.10
11597;DHT22;5854;48.072;16.286;2022-09-02T06:28:43;18.90;43.30
11597;DHT22;5854;48.072;16.286;2022-09-02T06:31:12;18.50;44.00
11597;DHT22;5854;48.072;16.286;2022-09-02T06:33:41;18.10;44.60
11597;DHT22;5854;48.072;16.286;2022-09-02T06:36:13;17.80;45.00
11597;DHT22;5854;48.072;16.286;2022-09-02T06:38:43;17.70;46.30
11597;DHT22;5854;48.072;16.286;2022-09-02T06:41:14;17.50;46.00
11597;DHT22;5854;48.072;16.286;2022-09-02T06:43:42;17.50;46.30
11597;DHT22;5854;48.072;16.286;2022-09-02T06:46:14;17.50;46.00
11597;DHT22;5854;48.072;16.286;2022-09-02T06:48:42;17.50;46.20
11597;DHT22;5854;48.072;16.286;2022-09-02T06:51:15;17.70;46.20
11597;DHT22;5854;48.072;16.286;2022-09-02T06:53:43;17.90;45.70
11597;DHT22;5854;48.072;16.286;2022-09-02T06:56:10;18.20;45.10
11597;DHT22;5854;48.072;16.286;2022-09-02T06:58:39;18.90;43.20
11597;DHT22;5854;48.072;16.286;2022-09-02T07:01:06;19.80;41.70
11597;DHT22;5854;48.072;16.286;2022-09-02T07:03:34;20.30;40.20
11597;DHT22;5854;48.072;16.286;2022-09-02T07:06:20;20.70;39.10
11597;DHT22;5854;48.072;16.286;2022-09-02T07:08:48;21.00;37.90
11597;DHT22;5854;48.072;16.286;2022-09-02T07:11:18;21.40;37.80
11597;DHT22;5854;48.072;16.286;2022-09-02T07:13:48;22.10;36.90
11597;DHT22;5854;48.072;16.286;2022-09-02T07:16:16;22.30;36.00
11597;DHT22;5854;48.072;16.286;2022-09-02T07:18:44;22.60;35.30
11597;DHT22;5854;48.072;16.286;2022-09-02T07:21:12;22.80;34.80
11597;DHT22;5854;48.072;16.286;2022-09-02T07:23:39;23.10;34.50
11597;DHT22;5854;48.072;16.286;2022-09-02T07:26:11;23.20;33.70
11597;DHT22;5854;48.072;16.286;2022-09-02T07:28:38;23.30;34.10
11597;DHT22;5854;48.072;16.286;2022-09-02T07:31:08;23.80;33.10
11597;DHT22;5854;48.072;16.286;2022-09-02T07:33:36;23.60;33.20
11597;DHT22;5854;48.072;16.286;2022-09-02T07:36:05;23.90;32.80
11597;DHT22;5854;48.072;16.286;2022-09-02T07:38:35;23.70;32.90
11597;DHT22;5854;48.072;16.286;2022-09-02T07:41:05;23.80;32.40
11597;DHT22;5854;48.072;16.286;2022-09-02T07:43:34;24.00;32.20
11597;DHT22;5854;48.072;16.286;2022-09-02T07:46:03;24.20;32.80
11597;DHT22;5854;48.072;16.286;2022-09-02T07:48:33;24.50;32.10
11597;DHT22;5854;48.072;16.286;2022-09-02T07:51:01;24.70;31.30
11597;DHT22;5854;48.072;16.286;2022-09-02T07:53:30;25.30;31.30
11597;DHT22;5854;48.072;16.286;2022-09-02T07:55:58;25.50;30.20
11597;DHT22;5854;48.072;16.286;2022-09-02T07:58:25;25.10;29.60
11597;DHT22;5854;48.072;16.286;2022-09-02T08:00:53;24.80;30.40
11597;DHT22;5854;48.072;16.286;2022-09-02T08:03:21;25.10;30.90
11597;DHT22;5854;48.072;16.286;2022-09-02T08:05:51;24.80;30.60
11597;DHT22;5854;48.072;16.286;2022-09-02T08:08:19;23.30;32.00
11597;DHT22;5854;48.072;16.286;2022-09-02T08:10:47;21.70;35.00
11597;DHT22;5854;48.072;16.286;2022-09-02T08:13:15;20.80;37.20
11597;DHT22;5854;48.072;16.286;2022-09-02T08:15:44;20.20;38.90
11597;DHT22;5854;48.072;16.286;2022-09-02T08:18:11;19.90;39.20
11597;DHT22;5854;48.072;16.286;2022-09-02T08:20:39;19.60;39.30
11597;DHT22;5854;48.072;16.286;2022-09-02T08:23:07;19.40;40.50
11597;DHT22;5854;48.072;16.286;2022-09-02T08:25:36;19.10;41.60
11597;DHT22;5854;48.072;16.286;2022-09-02T08:28:03;19.00;41.80
11597;DHT22;5854;48.072;16.286;2022-09-02T08:30:31;19.20;41.00
11597;DHT22;5854;48.072;16.286;2022-09-02T08:32:58;19.50;40.50
11597;DHT22;5854;48.072;16.286;2022-09-02T08:35:25;19.60;40.70
11597;DHT22;5854;48.072;16.286;2022-09-02T08:37:52;19.40;39.20
11597;DHT22;5854;48.072;16.286;2022-09-02T08:40:22;19.50;38.80
11597;DHT22;5854;48.072;16.286;2022-09-02T08:42:52;19.50;40.40
11597;DHT22;5854;48.072;16.286;2022-09-02T08:45:23;19.30;41.50
11597;DHT22;5854;48.072;16.286;2022-09-02T08:48:00;19.10;41.30
11597;DHT22;5854;48.072;16.286;2022-09-02T08:50:31;19.20;40.70
11597;DHT22;5854;48.072;16.286;2022-09-02T08:53:05;19.30;40.60
11597;DHT22;5854;48.072;16.286;2022-09-02T08:55:42;19.20;41.00
11597;DHT22;5854;48.072;16.286;2022-09-02T08:58:17;19.80;40.00
11597;DHT22;5854;48.072;16.286;2022-09-02T09:00:51;19.90;40.10
11597;DHT22;5854;48.072;16.286;2022-09-02T09:03:26;19.90;39.90
11597;DHT22;5854;48.072;16.286;2022-09-02T09:06:02;19.70;40.20
11597;DHT22;5854;48.072;16.286;2022-09-02T09:08:37;19.80;39.90
11597;DHT22;5854;48.072;16.286;2022-09-02T09:11:17;19.90;39.80
11597;DHT22;5854;48.072;16.286;2022-09-02T09:14:01;19.90;40.50
11597;DHT22;5854;48.072;16.286;2022-09-02T09:16:38;19.90;40.00
11597;DHT22;5854;48.072;16.286;2022-09-02T09:19:11;19.80;39.20
11597;DHT22;5854;48.072;16.286;2022-09-02T09:21:40;19.90;39.00
11597;DHT22;5854;48.072;16.286;2022-09-02T09:24:17;19.80;38.30
11597;DHT22;5854;48.072;16.286;2022-09-02T09:26:49;19.80;38.60
11597;DHT22;5854;48.072;16.286;2022-09-02T09:29:16;20.10;39.40
11597;DHT22;5854;48.072;16.286;2022-09-02T09:31:47;20.20;39.60
11597;DHT22;5854;48.072;16.286;2022-09-02T09:34:19;20.20;38.20
11597;DHT22;5854;48.072;16.286;2022-09-02T09:36:49;20.20;38.10
11597;DHT22;5854;48.072;16.286;2022-09-02T09:39:22;20.20;39.30
11597;DHT22;5854;48.072;16.286;2022-09-02T09:41:54;20.00;38.90
11597;DHT22;5854;48.072;16.286;2022-09-02T09:44:43;20.00;38.50
11597;DHT22;5854;48.072;16.286;2022-09-02T09:47:16;20.20;39.70
11597;DHT22;5854;48.072;16.286;2022-09-02T09:49:46;20.20;38.70
11597;DHT22;5854;48.072;16.286;2022-09-02T09:52:25;20.00;39.80
11597;DHT22;5854;48.072;16.286;2022-09-02T09:55:14;20.00;38.80
11597;DHT22;5854;48.072;16.286;2022-09-02T09:57:45;20.10;37.60
11597;DHT22;5854;48.072;16.286;2022-09-02T10:00:20;20.20;37.20
11597;DHT22;5854;48.072;16.286;2022-09-02T10:02:50;20.20;37.90
11597;DHT22;5854;48.072;16.286;2022-09-02T10:05:28;20.40;37.70
11597;DHT22;5854;48.072;16.286;2022-09-02T10:07:59;20.40;36.40
11597;DHT22;5854;48.072;16.286;2022-09-02T10:10:29;20.20;34.70
11597;DHT22;5854;48.072;16.286;2022-09-02T10:13:01;20.20;36.40
11597;DHT22;5854;48.072;16.286;2022-09-02T10:15:53;20.20;36.50
11597;DHT22;5854;48.072;16.286;2022-09-02T10:18:47;20.30;37.10
11597;DHT22;5854;48.072;16.286;2022-09-02T10:21:27;20.30;38.00
11597;DHT22;5854;48.072;16.286;2022-09-02T10:24:05;20.00;40.10
11597;DHT22;5854;48.072;16.286;2022-09-02T10:26:39;19.70;40.70
11597;DHT22;5854;48.072;16.286;2022-09-02T10:29:32;19.80;41.20
11597;DHT22;5854;48.072;16.286;2022-09-02T10:32:38;19.90;38.80
11597;DHT22;5854;48.072;16.286;2022-09-02T10:35:16;20.00;39.90
11597;DHT22;5854;48.072;16.286;2022-09-02T10:37:59;20.00;39.90
11597;DHT22;5854;48.072;16.286;2022-09-02T10:40:37;20.10;39.40
11597;DHT22;5854;48.072;16.286;2022-09-02T10:43:09;20.10;39.30
11597;DHT22;5854;48.072;16.286;2022-09-02T10:45:44;20.20;40.20
11597;DHT22;5854;48.072;16.286;2022-09-02T10:48:29;20.10;36.80
11597;DHT22;5854;48.072;16.286;2022-09-02T10:51:05;20.10;38.80
11597;DHT22;5854;48.072;16.286;2022-09-02T10:53:42;20.20;37.50
11597;DHT22;5854;48.072;16.286;2022-09-02T10:56:19;20.20;37.90
11597;DHT22;5854;48.072;16.286;2022-09-02T10:58:52;20.30;40.10
11597;DHT22;5854;48.072;16.286;2022-09-02T11:01:27;20.20;39.00
11597;DHT22;5854;48.072;16.286;2022-09-02T11:04:04;20.10;36.80
11597;DHT22;5854;48.072;16.286;2022-09-02T11:06:37;20.10;40.70
11597;DHT22;5854;48.072;16.286;2022-09-02T11:09:10;20.10;39.70
11597;DHT22;5854;48.072;16.286;2022-09-02T11:11:43;20.30;39.50
11597;DHT22;5854;48.072;16.286;2022-09-02T11:14:17;20.20;38.20
11597;DHT22;5854;48.072;16.286;2022-09-02T11:16:52;20.30;37.40
11597;DHT22;5854;48.072;16.286;2022-09-02T11:19:27;20.30;38.30
11597;DHT22;5854;48.072;16.286;2022-09-02T11:22:02;20.40;39.80
11597;DHT22;5854;48.072;16.286;2022-09-02T11:24:37;20.30;38.00
11597;DHT22;5854;48.072;16.286;2022-09-02T11:27:14;20.40;36.60
11597;DHT22;5854;48.072;16.286;2022-09-02T11:29:51;20.40;40.00
11597;DHT22;5854;48.072;16.286;2022-09-02T11:32:28;20.40;39.20
11597;DHT22;5854;48.072;16.286;2022-09-02T11:34:58;20.60;37.60
11597;DHT22;5854;48.072;16.286;2022-09-02T11:37:33;20.60;37.30
11597;DHT22;5854;48.072;16.286;2022-09-02T11:40:08;20.70;38.70
11597;DHT22;5854;48.072;16.286;2022-09-02T11:42:59;20.60;36.40
11597;DHT22;5854;48.072;16.286;2022-09-02T11:45:36;20.50;40.00
11597;DHT22;5854;48.072;16.286;2022-09-02T11:48:48;20.50;36.90
11597;DHT22;5854;48.072;16.286;2022-09-02T11:51:36;20.60;36.60
11597;DHT22;5854;48.072;16.286;2022-09-02T11:54:16;20.60;38.70
11597;DHT22;5854;48.072;16.286;2022-09-02T11:56:45;20.50;38.80
11597;DHT22;5854;48.072;16.286;2022-09-02T12:00:03;20.50;37.30
11597;DHT22;5854;48.072;16.286;2022-09-02T12:02:39;20.50;38.20
11597;DHT22;5854;48.072;16.286;2022-09-02T12:05:47;20.50;40.60
11597;DHT22;5854;48.072;16.286;2022-09-02T12:11:48;20.50;40.00
11597;DHT22;5854;48.072;16.286;2022-09-02T12:21:08;20.60;36.40
11597;DHT22;5854;48.072;16.286;2022-09-02T12:24:06;20.70;36.80
11597;DHT22;5854;48.072;16.286;2022-09-02T12:29:57;20.70;35.20
11597;DHT22;5854;48.072;16.286;2022-09-02T12:35:33;20.80;37.80
11597;DHT22;5854;48.072;16.286;2022-09-02T12:38:34;21.00;37.10
11597;DHT22;5854;48.072;16.286;2022-09-02T12:41:10;21.10;36.60
11597;DHT22;5854;48.072;16.286;2022-09-02T12:44:13;21.10;36.60
11597;DHT22;5854;48.072;16.286;2022-09-02T12:46:52;21.10;34.40
11597;DHT22;5854;48.072;16.286;2022-09-02T12:49:34;21.20;39.10
11597;DHT22;5854;48.072;16.286;2022-09-02T12:52:05;21.20;39.60
11597;DHT22;5854;48.072;16.286;2022-09-02T12:54:39;21.20;36.70
11597;DHT22;5854;48.072;16.286;2022-09-02T12:57:08;21.20;38.70
11597;DHT22;5854;48.072;16.286;2022-09-02T12:59:38;21.20;33.80
11597;DHT22;5854;48.072;16.286;2022-09-02T13:02:21;21.20;34.90
11597;DHT22;5854;48.072;16.286;2022-09-02T13:05:04;21.20;34.40
11597;DHT22;5854;48.072;16.286;2022-09-02T13:14:50;21.30;38.90
11597;DHT22;5854;48.072;16.286;2022-09-02T13:17:25;21.30;35.80
11597;DHT22;5854;48.072;16.286;2022-09-02T13:20:12;21.40;37.00
11597;DHT22;5854;48.072;16.286;2022-09-02T13:23:07;21.30;36.40
11597;DHT22;5854;48.072;16.286;2022-09-02T13:26:04;21.50;38.30
11597;DHT22;5854;48.072;16.286;2022-09-02T13:29:04;21.50;36.80
11597;DHT22;5854;48.072;16.286;2022-09-02T13:31:40;21.50;39.50
11597;DHT22;5854;48.072;16.286;2022-09-02T13:34:11;21.50;39.30
11597;DHT22;5854;48.072;16.286;2022-09-02T13:36:42;21.50;38.20
11597;DHT22;5854;48.072;16.286;2022-09-02T13:39:12;21.50;36.00
11597;DHT22;5854;48.072;16.286;2022-09-02T13:41:41;21.50;35.60
11597;DHT22;5854;48.072;16.286;2022-09-02T13:44:21;21.50;37.20
11597;DHT22;5854;48.072;16.286;2022-09-02T13:46:51;21.70;33.70
11597;DHT22;5854;48.072;16.286;2022-09-02T13:49:21;21.70;35.30
11597;DHT22;5854;48.072;16.286;2022-09-02T13:51:53;21.70;33.40
11597;DHT22;5854;48.072;16.286;2022-09-02T13:54:30;21.60;32.30
11597;DHT22;5854;48.072;16.286;2022-09-02T13:57:01;21.60;38.00
11597;DHT22;5854;48.072;16.286;2022-09-02T13:59:33;21.70;35.40
11597;DHT22;5854;48.072;16.286;2022-09-02T14:02:23;21.60;34.10
11597;DHT22;5854;48.072;16.286;2022-09-02T14:04:56;21.70;34.40
11597;DHT22;5854;48.072;16.286;2022-09-02T14:07:31;22.10;37.40
11597;DHT22;5854;48.072;16.286;2022-09-02T14:10:04;23.10;34.60
11597;DHT22;5854;48.072;16.286;2022-09-02T14:12:36;23.70;29.70
11597;DHT22;5854;48.072;16.286;2022-09-02T14:15:08;23.70;32.00
11597;DHT22;5854;48.072;16.286;2022-09-02T14:17:37;23.60;30.00
11597;DHT22;5854;48.072;16.286;2022-09-02T14:20:14;23.40;34.50
11597;DHT22;5854;48.072;16.286;2022-09-02T14:22:50;23.10;31.80
11597;DHT22;5854;48.072;16.286;2022-09-02T14:25:18;22.80;30.30
11597;DHT22;5854;48.072;16.286;2022-09-02T14:27:50;22.70;35.00
11597;DHT22;5854;48.072;16.286;2022-09-02T14:30:30;22.60;31.50
11597;DHT22;5854;48.072;16.286;2022-09-02T14:33:23;22.30;33.20
11597;DHT22;5854;48.072;16.286;2022-09-02T14:35:59;22.30;32.80
11597;DHT22;5854;48.072;16.286;2022-09-02T14:38:28;22.20;31.20
11597;DHT22;5854;48.072;16.286;2022-09-02T14:41:00;22.10;31.30
11597;DHT22;5854;48.072;16.286;2022-09-02T14:43:41;22.20;32.70
11597;DHT22;5854;48.072;16.286;2022-09-02T14:46:22;22.20;31.50
11597;DHT22;5854;48.072;16.286;2022-09-02T14:48:55;22.10;31.20
11597;DHT22;5854;48.072;16.286;2022-09-02T14:51:31;22.10;31.70
11597;DHT22;5854;48.072;16.286;2022-09-02T14:54:02;22.10;36.80
11597;DHT22;5854;48.072;16.286;2022-09-02T14:56:44;22.30;36.00
11597;DHT22;5854;48.072;16.286;2022-09-02T14:59:13;22.30;32.30
11597;DHT22;5854;48.072;16.286;2022-09-02T15:01:44;22.30;33.50
11597;DHT22;5854;48.072;16.286;2022-09-02T15:04:12;22.30;34.30
11597;DHT22;5854;48.072;16.286;2022-09-02T15:06:39;22.40;34.60
11597;DHT22;5854;48.072;16.286;2022-09-02T15:09:07;22.40;35.20
11597;DHT22;5854;48.072;16.286;2022-09-02T15:11:35;22.50;37.10
11597;DHT22;5854;48.072;16.286;2022-09-02T15:14:02;22.50;33.60
11597;DHT22;5854;48.072;16.286;2022-09-02T15:16:30;22.30;31.10
11597;DHT22;5854;48.072;16.286;2022-09-02T15:18:58;22.30;35.20
11597;DHT22;5854;48.072;16.286;2022-09-02T15:21:25;22.30;35.30
11597;DHT22;5854;48.072;16.286;2022-09-02T15:23:52;22.20;30.70
11597;DHT22;5854;48.072;16.286;2022-09-02T15:26:20;22.20;34.00
11597;DHT22;5854;48.072;16.286;2022-09-02T15:28:47;22.20;35.90
11597;DHT22;5854;48.072;16.286;2022-09-02T15:31:14;22.30;36.00
11597;DHT22;5854;48.072;16.286;2022-09-02T15:33:41;22.30;33.70
11597;DHT22;5854;48.072;16.286;2022-09-02T15:36:12;22.20;31.30
11597;DHT22;5854;48.072;16.286;2022-09-02T15:38:39;22.10;31.60
11597;DHT22;5854;48.072;16.286;2022-09-02T15:41:11;21.90;30.90
11597;DHT22;5854;48.072;16.286;2022-09-02T15:43:39;21.80;31.30
11597;DHT22;5854;48.072;16.286;2022-09-02T15:46:17;21.80;32.30
11597;DHT22;5854;48.072;16.286;2022-09-02T15:48:48;21.80;32.50
11597;DHT22;5854;48.072;16.286;2022-09-02T15:51:18;21.70;32.70
11597;DHT22;5854;48.072;16.286;2022-09-02T15:53:46;21.80;31.50
11597;DHT22;5854;48.072;16.286;2022-09-02T15:56:19;21.70;33.40
11597;DHT22;5854;48.072;16.286;2022-09-02T15:58:46;21.50;33.00
11597;DHT22;5854;48.072;16.286;2022-09-02T16:01:13;21.30;31.80
11597;DHT22;5854;48.072;16.286;2022-09-02T16:03:41;21.40;35.60
11597;DHT22;5854;48.072;16.286;2022-09-02T16:06:08;21.50;36.50
11597;DHT22;5854;48.072;16.286;2022-09-02T16:08:36;21.50;36.00
11597;DHT22;5854;48.072;16.286;2022-09-02T16:11:05;21.50;36.70
11597;DHT22;5854;48.072;16.286;2022-09-02T16:13:33;21.40;35.20
11597;DHT22;5854;48.072;16.286;2022-09-02T16:16:02;21.30;38.00
11597;DHT22;5854;48.072;16.286;2022-09-02T16:18:30;21.40;35.70
11597;DHT22;5854;48.072;16.286;2022-09-02T16:20:58;21.60;37.20
11597;DHT22;5854;48.072;16.286;2022-09-02T16:23:25;21.70;34.50